Time;durP1;ratioP1;P1;durP2;ratioP2;P2;SDS_P1;SDS_P2;PMS_P1;PMS_P2;Temp;Humidity;BMP_temperature;BMP_pressure;BME280_temperature;BME280_humidity;BME280_pressure;Samples;Min_cycle;Max_cycle;Signal;HPM_P1;HPM_P2
2024/01/09 00:00:32;;;;;;;5.35;3.47;;;;;;;-2.33;73.40;101706.13;5011086;28;20049;-78
2024/01/09 00:02:58;;;;;;;5.97;3.00;;;;;;;-2.33;73.31;101700.97;5011303;28;20153;-77
2024/01/09 00:05:28;;;;;;;5.60;3.03;;;;;;;-2.35;73.35;101697.47;5011436;28;20112;-77
2024/01/09 00:07:54;;;;;;;6.28;3.10;;;;;;;-2.36;73.35;101708.59;5009907;28;20042;-76
2024/01/09 00:12:57;;;;;;;8.10;3.17;;;;;;;-2.39;73.44;101698.22;4939710;23;20068;-77
2024/01/09 00:15:24;;;;;;;7.65;2.90;;;;;;;-2.41;73.18;101699.88;5030907;28;20061;-77
2024/01/09 00:17:51;;;;;;;7.50;3.50;;;;;;;-2.43;73.13;101689.50;5013999;28;20119;-79
2024/01/09 00:20:19;;;;;;;5.10;2.90;;;;;;;-2.45;73.30;101696.34;5031353;28;20431;-80
2024/01/09 00:22:45;;;;;;;8.52;3.70;;;;;;;-2.46;72.97;101685.97;5031307;28;20049;-79
2024/01/09 00:25:12;;;;;;;7.25;3.58;;;;;;;-2.50;73.28;101691.03;5030957;28;20380;-80
2024/01/09 00:27:38;;;;;;;6.90;3.47;;;;;;;-2.51;73.15;101691.00;5031140;28;20103;-80
2024/01/09 00:30:05;;;;;;;6.65;3.55;;;;;;;-2.53;72.84;101683.25;5031351;28;20058;-81
2024/01/09 00:32:32;;;;;;;5.75;3.25;;;;;;;-2.55;72.98;101687.47;5013603;28;20048;-80
2024/01/09 00:34:59;;;;;;;5.70;2.85;;;;;;;-2.55;73.23;101690.03;5006821;28;20364;-80
2024/01/09 00:37:26;;;;;;;6.82;3.60;;;;;;;-2.58;72.89;101678.78;5011606;28;20049;-80
2024/01/09 00:39:52;;;;;;;7.55;3.40;;;;;;;-2.59;72.95;101683.03;5011255;28;20104;-80
2024/01/09 00:42:19;;;;;;;6.45;3.60;;;;;;;-2.61;72.78;101677.00;5011035;28;20501;-80
2024/01/09 00:44:45;;;;;;;7.43;3.90;;;;;;;-2.62;72.74;101681.25;5017686;28;20045;-80
2024/01/09 00:47:12;;;;;;;5.78;3.33;;;;;;;-2.63;72.87;101689.84;5030562;28;20037;-80
2024/01/09 00:49:39;;;;;;;6.10;3.70;;;;;;;-2.65;72.81;101681.16;5013009;28;20068;-80
2024/01/09 00:52:06;;;;;;;5.45;3.22;;;;;;;-2.66;72.78;101676.00;5030643;28;20658;-80
2024/01/09 00:54:32;;;;;;;7.45;4.15;;;;;;;-2.67;72.89;101676.78;5019977;28;20053;-80
2024/01/09 00:56:59;;;;;;;6.40;3.42;;;;;;;-2.69;72.48;101670.75;4993269;28;20044;-80
2024/01/09 00:59:25;;;;;;;7.53;3.78;;;;;;;-2.72;72.41;101665.47;5010722;28;20534;-80
2024/01/09 01:01:52;;;;;;;6.95;3.30;;;;;;;-2.73;72.61;101674.06;5010535;28;20129;-81
2024/01/09 01:04:19;;;;;;;7.03;3.53;;;;;;;-2.76;72.30;101667.09;4993078;28;20491;-79
2024/01/09 01:06:45;;;;;;;5.82;3.60;;;;;;;-2.78;72.76;101674.78;5010696;28;20049;-79
2024/01/09 01:09:12;;;;;;;7.97;3.67;;;;;;;-2.80;72.71;101668.69;5010411;28;20046;-80
2024/01/09 01:11:39;;;;;;;5.60;3.63;;;;;;;-2.81;72.68;101666.97;5009964;28;20057;-80
2024/01/09 01:14:05;;;;;;;7.95;4.22;;;;;;;-2.83;72.41;101663.47;5010745;28;20058;-79
2024/01/09 01:16:32;;;;;;;7.85;3.53;;;;;;;-2.85;72.64;101662.53;5010669;28;20501;-80
2024/01/09 01:18:59;;;;;;;8.32;4.00;;;;;;;-2.86;72.42;101659.91;5010496;28;20554;-80
2024/01/09 01:21:26;;;;;;;6.88;3.72;;;;;;;-2.89;72.22;101660.69;5010293;28;20088;-80
2024/01/09 01:23:53;;;;;;;9.55;4.45;;;;;;;-2.91;72.07;101664.97;5010352;28;20477;-80
2024/01/09 01:26:20;;;;;;;6.70;3.40;;;;;;;-2.94;71.94;101655.44;5010384;28;20512;-80
2024/01/09 01:28:46;;;;;;;7.32;3.85;;;;;;;-2.95;72.10;101663.13;5010332;28;20383;-80
2024/01/09 01:31:13;;;;;;;6.85;3.75;;;;;;;-2.96;72.33;101661.38;5010458;28;20050;-79
2024/01/09 01:33:40;;;;;;;7.60;4.05;;;;;;;-2.99;71.87;101664.69;5010210;28;20673;-80
2024/01/09 01:36:13;;;;;;;7.32;3.85;;;;;;;-3.02;71.64;101668.06;5010473;28;20125;-79
2024/01/09 01:38:40;;;;;;;7.22;4.00;;;;;;;-3.01;72.41;101663.78;5013541;28;20054;-79
2024/01/09 01:41:07;;;;;;;7.18;3.60;;;;;;;-3.04;72.00;101663.69;5014065;28;20100;-79
2024/01/09 01:43:34;;;;;;;7.07;3.85;;;;;;;-3.06;71.97;101663.66;5014131;28;20056;-80
2024/01/09 01:46:03;;;;;;;7.13;3.70;;;;;;;-3.08;71.90;101669.59;5013919;28;20054;-80
2024/01/09 01:48:31;;;;;;;7.72;3.72;;;;;;;-3.10;71.78;101668.69;5013521;28;20444;-80
2024/01/09 01:50:58;;;;;;;7.50;3.88;;;;;;;-3.12;72.24;101668.63;5013517;28;20046;-80
2024/01/09 01:53:28;;;;;;;6.55;3.90;;;;;;;-3.14;71.64;101667.72;5013470;28;20050;-80
2024/01/09 01:55:55;;;;;;;8.30;4.47;;;;;;;-3.17;71.40;101660.75;5013599;28;20501;-80
2024/01/09 01:58:24;;;;;;;7.32;4.25;;;;;;;-3.18;71.63;101655.56;5013526;28;20050;-79
2024/01/09 02:00:51;;;;;;;7.13;4.05;;;;;;;-3.21;71.81;101656.31;5013353;28;20438;-80
2024/01/09 02:03:18;;;;;;;10.15;5.10;;;;;;;-3.23;71.64;101654.53;5013345;28;20650;-80
2024/01/09 02:05:46;;;;;;;8.25;4.13;;;;;;;-3.24;72.07;101656.25;5008983;28;20134;-80
2024/01/09 02:08:14;;;;;;;7.05;4.10;;;;;;;-3.27;71.44;101646.72;5033041;28;20470;-79
2024/01/09 02:10:42;;;;;;;8.45;4.85;;;;;;;-3.28;71.72;101659.56;5015478;28;20041;-80
2024/01/09 02:13:09;;;;;;;7.90;4.45;;;;;;;-3.29;72.27;101656.09;5032834;28;20038;-80
2024/01/09 02:15:36;;;;;;;9.50;4.60;;;;;;;-3.31;71.98;101655.19;5032936;28;20054;-79
2024/01/09 02:18:03;;;;;;;9.93;4.78;;;;;;;-3.32;71.88;101656.00;5032845;28;20052;-80
2024/01/09 02:20:30;;;;;;;7.50;4.45;;;;;;;-3.33;71.90;101656.81;5032624;28;20045;-79
2024/01/09 02:22:57;;;;;;;10.07;5.03;;;;;;;-3.34;71.60;101660.22;5032803;28;20045;-81
2024/01/09 02:25:24;;;;;;;8.70;4.50;;;;;;;-3.37;71.88;101659.28;5032834;28;20057;-79
2024/01/09 02:28:02;;;;;;;9.63;4.85;;;;;;;-3.39;71.44;101656.66;5032862;28;20045;-80
2024/01/09 02:30:30;;;;;;;9.23;5.30;;;;;;;-3.40;71.57;101662.63;5032482;28;20057;-80
2024/01/09 02:32:57;;;;;;;11.32;5.10;;;;;;;-3.42;71.95;101665.16;5032417;28;20048;-80
2024/01/09 02:35:24;;;;;;;10.75;5.53;;;;;;;-3.44;71.18;101663.34;5032766;28;20517;-80
2024/01/09 02:37:51;;;;;;;12.23;5.35;;;;;;;-3.45;71.70;101666.72;5032831;28;20053;-79
2024/01/09 02:40:17;;;;;;;9.13;4.60;;;;;;;-3.47;71.69;101663.25;5032459;28;20127;-80
2024/01/09 02:42:44;;;;;;;10.15;5.70;;;;;;;-3.49;71.04;101665.78;5032464;28;20045;-80
2024/01/09 02:45:13;;;;;;;11.73;5.50;;;;;;;-3.50;71.71;101663.16;5032436;28;20045;-79
2024/01/09 02:47:40;;;;;;;8.63;4.65;;;;;;;-3.52;71.58;101670.81;5032294;28;20067;-79
2024/01/09 02:50:07;;;;;;;10.68;5.65;;;;;;;-3.53;71.71;101669.06;5014605;28;20046;-80
2024/01/09 02:52:33;;;;;;;9.88;5.20;;;;;;;-3.57;71.42;101670.69;5032338;28;20041;-81
2024/01/09 02:55:00;;;;;;;9.65;4.97;;;;;;;-3.57;71.36;101662.06;5032295;28;20077;-79
2024/01/09 02:57:26;;;;;;;9.70;5.45;;;;;;;-3.60;71.74;101668.00;5032155;28;20053;-80
2024/01/09 02:59:53;;;;;;;11.50;5.35;;;;;;;-3.63;71.11;101664.47;5031836;28;20115;-80
2024/01/09 03:02:19;;;;;;;10.18;5.20;;;;;;;-3.66;71.51;101662.66;5032255;28;20112;-81
2024/01/09 03:04:46;;;;;;;12.15;5.38;;;;;;;-3.68;71.70;101670.34;5032277;28;20045;-80
2024/01/09 03:07:13;;;;;;;10.48;5.97;;;;;;;-3.70;71.66;101666.81;5014360;28;20046;-80
2024/01/09 03:09:43;;;;;;;10.65;5.30;;;;;;;-3.72;71.02;101658.19;5031914;28;20057;-80
2024/01/09 03:12:09;;;;;;;9.43;5.03;;;;;;;-3.73;71.43;101661.59;5014016;28;20132;-80
2024/01/09 03:14:37;;;;;;;11.32;6.03;;;;;;;-3.74;71.09;101651.25;5032153;28;20119;-80
2024/01/09 03:17:07;;;;;;;10.88;5.97;;;;;;;-3.76;70.96;101661.47;5032042;28;20049;-81
2024/01/09 03:19:33;;;;;;;10.23;5.72;;;;;;;-3.78;70.97;101664.84;5031913;28;20128;-80
2024/01/09 03:22:00;;;;;;;10.73;5.60;;;;;;;-3.80;71.13;101657.06;5014053;28;20057;-81
2024/01/09 03:24:26;;;;;;;9.57;5.50;;;;;;;-3.81;71.07;101655.31;5031632;28;20046;-79
2024/01/09 03:26:53;;;;;;;9.73;5.40;;;;;;;-3.82;71.24;101659.56;5013922;28;20489;-80
2024/01/09 03:29:20;;;;;;;10.77;5.90;;;;;;;-3.84;71.00;101650.94;5031664;28;20045;-82
2024/01/09 03:31:46;;;;;;;11.48;5.85;;;;;;;-3.85;71.41;101651.75;5031352;28;20049;-80
2024/01/09 03:34:13;;;;;;;11.38;5.65;;;;;;;-3.88;70.98;101661.97;5031630;28;20041;-79
2024/01/09 03:36:43;;;;;;;12.65;6.15;;;;;;;-3.89;71.09;101655.03;5031823;28;20052;-80
2024/01/09 03:39:11;;;;;;;10.20;5.97;;;;;;;-3.89;71.57;101655.03;5014005;28;20084;-78
2024/01/09 03:41:38;;;;;;;11.55;5.45;;;;;;;-3.90;70.92;101653.28;5030678;28;20041;-78
2024/01/09 03:44:04;;;;;;;12.27;5.80;;;;;;;-3.92;71.24;101644.66;5000811;28;20049;-78
2024/01/09 03:46:31;;;;;;;12.88;6.20;;;;;;;-3.94;70.69;101651.44;5009053;28;20053;-78
2024/01/09 03:48:58;;;;;;;14.52;5.68;;;;;;;-3.95;71.16;101649.69;5011237;28;20046;-78
2024/01/09 03:51:24;;;;;;;11.63;6.03;;;;;;;-3.96;70.82;101650.53;5010966;28;20481;-78
2024/01/09 03:53:52;;;;;;;13.02;5.93;;;;;;;-3.99;71.28;101646.16;5011236;28;20049;-78
2024/01/09 03:56:19;;;;;;;10.65;5.43;;;;;;;-4.01;70.77;101645.22;4993825;28;20093;-78
2024/01/09 03:58:48;;;;;;;10.23;5.97;;;;;;;-4.03;70.69;101646.00;4993836;28;20046;-78
2024/01/09 04:01:14;;;;;;;13.18;5.97;;;;;;;-4.05;70.94;101640.78;5010381;28;20474;-79
2024/01/09 04:03:41;;;;;;;10.30;5.40;;;;;;;-4.05;70.65;101640.78;5011215;28;20050;-79
2024/01/09 04:06:07;;;;;;;12.85;5.82;;;;;;;-4.07;71.24;101647.59;5011362;28;20127;-78
2024/01/09 04:08:34;;;;;;;12.30;6.25;;;;;;;-4.08;70.92;101632.97;5011076;28;20053;-78
2024/01/09 04:11:04;;;;;;;11.48;6.00;;;;;;;-4.08;70.36;101645.81;5011251;28;20038;-78
2024/01/09 04:13:31;;;;;;;10.98;5.45;;;;;;;-4.09;70.82;101639.81;5010947;28;20050;-79
2024/01/09 04:15:57;;;;;;;10.32;5.57;;;;;;;-4.09;70.99;101642.38;5011207;28;20065;-79
2024/01/09 04:18:24;;;;;;;11.93;6.40;;;;;;;-4.10;70.86;101632.94;5011041;28;20435;-77
2024/01/09 04:20:52;;;;;;;14.52;6.53;;;;;;;-4.12;70.69;101639.72;5010848;28;20103;-78
2024/01/09 04:23:19;;;;;;;14.05;6.38;;;;;;;-4.12;70.94;101637.13;4993315;28;20052;-78
2024/01/09 04:25:45;;;;;;;12.63;6.28;;;;;;;-4.13;71.22;101637.06;5011100;28;20056;-78
2024/01/09 04:28:12;;;;;;;12.40;5.78;;;;;;;-4.15;70.91;101639.59;5011148;28;20049;-78
2024/01/09 04:30:42;;;;;;;10.48;6.13;;;;;;;-4.16;70.68;101630.13;5010668;28;20627;-78
2024/01/09 04:33:08;;;;;;;14.63;6.72;;;;;;;-4.17;71.29;101630.97;5011010;28;20111;-78
2024/01/09 04:35:35;;;;;;;12.02;5.97;;;;;;;-4.18;70.92;101619.78;5010857;28;20049;-78
2024/01/09 04:38:02;;;;;;;12.43;6.13;;;;;;;-4.19;70.88;101630.91;5010856;28;20053;-80
2024/01/09 04:40:30;;;;;;;11.68;6.28;;;;;;;-4.20;70.69;101628.28;5010835;28;20046;-77
2024/01/09 04:42:57;;;;;;;13.00;6.03;;;;;;;-4.21;70.89;101634.25;5010774;28;20467;-79
2024/01/09 04:45:23;;;;;;;11.52;6.07;;;;;;;-4.22;70.65;101635.09;5010839;28;20103;-78
2024/01/09 04:47:50;;;;;;;10.32;5.50;;;;;;;-4.24;70.73;101627.31;5010849;28;20045;-77
2024/01/09 04:50:17;;;;;;;10.73;5.60;;;;;;;-4.24;70.79;101631.56;4992863;28;20475;-78
2024/01/09 04:52:44;;;;;;;11.20;5.68;;;;;;;-4.24;70.85;101631.56;5010554;28;20533;-78
2024/01/09 04:55:10;;;;;;;13.13;5.95;;;;;;;-4.26;71.23;101633.22;5010809;28;20054;-77
2024/01/09 04:57:37;;;;;;;13.40;6.82;;;;;;;-4.27;70.60;101639.19;5010802;28;20049;-78
2024/01/09 05:00:05;;;;;;;13.07;6.53;;;;;;;-4.28;70.47;101635.75;5010672;28;20096;-78
2024/01/09 05:02:31;;;;;;;10.98;6.07;;;;;;;-4.29;71.05;101635.69;5010689;28;20054;-78
2024/01/09 05:04:58;;;;;;;12.02;6.25;;;;;;;-4.31;71.06;101635.63;4993031;28;20505;-78
2024/01/09 05:07:25;;;;;;;16.45;7.18;;;;;;;-4.32;70.47;101647.63;4993391;28;20042;-78
2024/01/09 05:09:51;;;;;;;12.45;6.40;;;;;;;-4.32;70.86;101649.31;4993059;28;20038;-78
2024/01/09 05:12:18;;;;;;;14.52;7.18;;;;;;;-4.34;70.77;101644.09;5013383;28;20054;-78
2024/01/09 05:14:44;;;;;;;14.40;7.07;;;;;;;-4.35;70.45;101646.63;5014397;28;20602;-78
2024/01/09 05:17:11;;;;;;;12.90;6.72;;;;;;;-4.36;70.58;101645.75;4996957;28;20406;-79
2024/01/09 05:19:37;;;;;;;14.60;7.03;;;;;;;-4.38;70.83;101652.53;5014156;28;20498;-78
2024/01/09 05:22:04;;;;;;;16.80;6.93;;;;;;;-4.39;71.04;101647.31;4996787;28;20045;-77
2024/01/09 05:24:31;;;;;;;13.85;6.43;;;;;;;-4.39;70.83;101644.75;4996813;28;20498;-78
2024/01/09 05:26:57;;;;;;;12.13;6.15;;;;;;;-4.41;70.96;101647.28;5014243;28;20120;-78
2024/01/09 05:29:24;;;;;;;13.93;6.13;;;;;;;-4.42;70.28;101648.09;5014201;28;20045;-77
2024/01/09 05:31:51;;;;;;;11.60;6.32;;;;;;;-4.42;70.71;101648.09;5013841;28;20158;-78
2024/01/09 05:34:17;;;;;;;15.98;7.20;;;;;;;-4.41;70.54;101652.41;5013794;28;20397;-78
2024/01/09 05:36:44;;;;;;;13.30;6.90;;;;;;;-4.42;70.90;101648.09;4996502;28;20046;-78
2024/01/09 05:39:11;;;;;;;11.18;6.15;;;;;;;-4.41;70.79;101651.56;4996651;28;20078;-77
2024/01/09 05:41:37;;;;;;;12.55;6.22;;;;;;;-4.41;70.80;101654.13;5013814;28;20430;-78
2024/01/09 05:44:04;;;;;;;13.73;7.10;;;;;;;-4.41;70.83;101654.97;4996488;28;20054;-78
2024/01/09 05:46:31;;;;;;;13.27;6.55;;;;;;;-4.42;70.60;101650.66;5013594;28;20391;-78
2024/01/09 05:48:57;;;;;;;14.98;6.43;;;;;;;-4.43;70.30;101651.50;5013850;28;20064;-76
2024/01/09 05:51:24;;;;;;;14.80;7.05;;;;;;;-4.43;70.67;101655.75;4996135;28;20104;-78
2024/01/09 05:53:50;;;;;;;12.82;6.43;;;;;;;-4.44;70.24;101660.03;5013635;28;20038;-79
2024/01/09 05:56:17;;;;;;;16.85;7.38;;;;;;;-4.45;70.44;101666.88;4996166;28;20108;-77
2024/01/09 05:58:44;;;;;;;12.80;6.10;;;;;;;-4.45;70.47;101658.31;5013655;28;20124;-78
2024/01/09 06:01:11;;;;;;;14.80;7.18;;;;;;;-4.45;70.31;101666.00;4995860;28;20046;-77
2024/01/09 06:03:38;;;;;;;14.90;7.40;;;;;;;-4.45;70.48;101668.56;5013676;28;20128;-77
2024/01/09 06:06:04;;;;;;;12.80;6.03;;;;;;;-4.47;70.65;101668.53;5013564;28;20052;-78
2024/01/09 06:08:31;;;;;;;12.40;6.75;;;;;;;-4.46;70.43;101664.22;5013367;28;20049;-79
2024/01/09 06:10:58;;;;;;;12.93;6.30;;;;;;;-4.47;70.21;101655.66;5013145;28;20096;-78
2024/01/09 06:13:25;;;;;;;12.48;6.50;;;;;;;-4.49;70.24;101657.28;5153665;23;20061;-78
2024/01/09 06:15:51;;;;;;;13.65;6.53;;;;;;;-4.49;70.11;101659.84;4993346;28;20054;-78
2024/01/09 06:18:18;;;;;;;11.85;6.57;;;;;;;-4.50;70.15;101665.84;4993330;28;20500;-80
2024/01/09 06:20:45;;;;;;;11.75;5.82;;;;;;;-4.48;70.41;101671.03;4993412;28;20120;-77
2024/01/09 06:23:11;;;;;;;11.40;6.28;;;;;;;-4.49;70.71;101671.84;4992654;28;20093;-78
2024/01/09 06:25:38;;;;;;;10.48;5.70;;;;;;;-4.50;70.06;101678.69;4993505;28;20057;-78
2024/01/09 06:28:04;;;;;;;11.60;6.45;;;;;;;-4.51;70.18;101676.06;4993412;28;20050;-83
2024/01/09 06:30:34;;;;;;;13.10;6.03;;;;;;;-4.51;70.40;101688.91;4991627;28;20073;-80
2024/01/09 06:33:01;;;;;;;14.90;6.25;;;;;;;-4.52;70.34;101679.44;4993577;28;20055;-83
2024/01/09 06:35:28;;;;;;;13.70;6.10;;;;;;;-4.54;70.06;101684.53;4992268;28;20050;-82
2024/01/09 06:37:54;;;;;;;12.52;6.00;;;;;;;-4.55;70.28;101687.94;4993424;28;20054;-81
2024/01/09 06:40:23;;;;;;;10.05;5.63;;;;;;;-4.55;70.57;101684.47;4993240;28;20149;-82
2024/01/09 06:42:51;;;;;;;13.80;6.00;;;;;;;-4.56;69.81;101685.28;4993099;28;20109;-81
2024/01/09 06:45:17;;;;;;;15.07;6.40;;;;;;;-4.59;70.49;101671.50;4992103;28;20050;-80
2024/01/09 06:47:44;;;;;;;13.18;5.63;;;;;;;-4.60;70.34;101682.59;4992863;28;20141;-79
2024/01/09 06:50:11;;;;;;;12.73;6.30;;;;;;;-4.62;69.96;101673.97;4992789;28;20762;-79
2024/01/09 06:52:56;;;;;;;10.43;5.82;;;;;;;-4.63;69.84;101679.06;4992711;28;20061;-80
2024/01/09 06:55:22;;;;;;;12.07;6.03;;;;;;;-4.65;70.31;101681.56;4992487;28;20062;-78
2024/01/09 06:57:49;;;;;;;15.55;7.05;;;;;;;-4.65;69.91;101688.38;4992810;28;20050;-80
2024/01/09 07:00:16;;;;;;;11.40;5.70;;;;;;;-4.68;70.50;101694.28;4992714;28;20054;-79
2024/01/09 07:02:43;;;;;;;13.90;5.80;;;;;;;-4.69;70.40;101689.09;4992415;28;20054;-81
2024/01/09 07:05:09;;;;;;;13.20;6.47;;;;;;;-4.70;70.49;101685.66;4992468;28;20050;-79
2024/01/09 07:07:36;;;;;;;12.63;6.68;;;;;;;-4.72;70.06;101690.75;4992509;28;20597;-80
2024/01/09 07:10:14;;;;;;;11.15;5.45;;;;;;;-4.73;70.08;101693.25;4992609;28;20122;-80
2024/01/09 07:12:41;;;;;;;12.43;6.03;;;;;;;-4.74;69.95;101688.94;4992336;28;20045;-80
2024/01/09 07:15:10;;;;;;;13.18;5.82;;;;;;;-4.74;69.94;101696.66;4992506;28;20542;-79
2024/01/09 07:17:37;;;;;;;14.88;5.90;;;;;;;-4.75;70.59;101697.47;4992629;28;20058;-79
2024/01/09 07:20:04;;;;;;;13.88;6.22;;;;;;;-4.77;70.20;101692.28;4992107;28;20073;-81
2024/01/09 07:22:31;;;;;;;10.18;5.55;;;;;;;-4.76;70.51;101712.00;4990950;28;20046;-78
2024/01/09 07:24:57;;;;;;;12.27;6.32;;;;;;;-4.76;70.12;101700.84;4992640;28;20149;-79
2024/01/09 07:27:24;;;;;;;12.48;5.60;;;;;;;-4.76;70.35;101705.97;4991158;28;20078;-80
2024/01/09 07:29:50;;;;;;;12.65;5.80;;;;;;;-4.76;69.79;101711.09;4991907;28;20086;-79
2024/01/09 07:32:17;;;;;;;12.63;6.00;;;;;;;-4.76;69.71;101711.09;4992263;28;20050;-79
2024/01/09 07:34:44;;;;;;;10.23;5.38;;;;;;;-4.77;70.08;101715.41;4991204;28;20054;-79
2024/01/09 07:37:10;;;;;;;11.38;5.45;;;;;;;-4.76;70.38;101717.13;4992118;28;20054;-78
2024/01/09 07:39:37;;;;;;;10.27;5.55;;;;;;;-4.76;70.35;101711.09;4991997;28;20133;-81
2024/01/09 07:42:03;;;;;;;14.07;5.63;;;;;;;-4.77;70.39;101714.50;4991659;28;20060;-78
2024/01/09 07:44:31;;;;;;;14.75;6.45;;;;;;;-4.79;70.17;101724.72;4991497;28;20152;-80
2024/01/09 07:46:57;;;;;;;14.32;5.82;;;;;;;-4.78;70.34;101728.19;4991502;28;20419;-78
2024/01/09 07:49:24;;;;;;;11.75;6.30;;;;;;;-4.80;70.04;101722.09;4991447;28;20046;-78
2024/01/09 07:51:50;;;;;;;11.60;5.75;;;;;;;-4.80;69.96;101722.97;4991576;28;20054;-78
2024/01/09 07:54:17;;;;;;;12.55;6.05;;;;;;;-4.79;70.44;101718.72;4990362;28;20736;-78
2024/01/09 07:56:43;;;;;;;11.60;5.85;;;;;;;-4.79;69.86;101713.59;4991727;28;20407;-78
2024/01/09 07:59:10;;;;;;;11.20;5.53;;;;;;;-4.80;70.55;101717.84;4991710;28;20463;-79
2024/01/09 08:01:36;;;;;;;11.98;5.60;;;;;;;-4.80;70.25;101728.13;4990368;28;20053;-77
2024/01/09 08:04:06;;;;;;;13.05;5.75;;;;;;;-4.80;70.22;101725.53;4991506;28;20054;-77
2024/01/09 08:06:32;;;;;;;11.27;5.60;;;;;;;-4.81;70.16;101716.09;4992100;28;20064;-78
2024/01/09 08:08:59;;;;;;;13.10;6.13;;;;;;;-4.79;70.31;101726.44;4990507;28;20046;-78
2024/01/09 08:11:26;;;;;;;12.18;5.22;;;;;;;-4.78;70.28;101725.59;4991339;28;20058;-80
2024/01/09 08:13:52;;;;;;;12.00;5.82;;;;;;;-4.76;70.21;101736.81;4989984;28;20515;-78
2024/01/09 08:16:19;;;;;;;11.70;5.35;;;;;;;-4.76;70.10;101729.97;4991495;28;20053;-78
2024/01/09 08:18:45;;;;;;;15.38;5.47;;;;;;;-4.74;70.40;101730.03;4991409;28;20137;-79
2024/01/09 08:21:13;;;;;;;12.05;5.93;;;;;;;-4.74;70.18;101730.91;4991249;28;20109;-78
2024/01/09 08:23:39;;;;;;;14.07;5.68;;;;;;;-4.72;70.14;101733.53;4991093;28;20050;-78
2024/01/09 08:26:06;;;;;;;12.10;5.93;;;;;;;-4.72;70.47;101726.72;4991428;28;20082;-76
2024/01/09 08:28:32;;;;;;;9.45;5.05;;;;;;;-4.69;70.16;101717.34;4991346;28;20499;-77
2024/01/09 08:30:59;;;;;;;12.35;5.93;;;;;;;-4.68;70.08;101712.28;4990961;28;20401;-80
2024/01/09 08:33:28;;;;;;;13.15;5.97;;;;;;;-4.67;70.02;101716.63;4991142;28;20073;-78
2024/01/09 08:35:58;;;;;;;11.00;5.20;;;;;;;-4.66;70.27;101715.81;4991487;28;20105;-79
2024/01/09 08:38:24;;;;;;;9.85;5.25;;;;;;;-4.65;70.54;101721.78;4991331;28;20068;-79
2024/01/09 08:40:55;;;;;;;10.60;5.20;;;;;;;-4.63;70.36;101722.75;4991151;28;20042;-77
2024/01/09 08:43:22;;;;;;;10.95;5.72;;;;;;;-4.62;70.50;101722.81;4989994;28;20072;-79
2024/01/09 08:45:49;;;;;;;11.45;5.75;;;;;;;-4.61;70.78;101709.13;4991960;28;20058;-78
2024/01/09 08:48:17;;;;;;;10.25;5.10;;;;;;;-4.59;70.69;101724.63;4995482;28;20050;-78
2024/01/09 08:50:44;;;;;;;10.60;5.30;;;;;;;-4.56;70.26;101729.88;4995124;28;20042;-79
2024/01/09 08:53:10;;;;;;;14.93;6.20;;;;;;;-4.53;70.39;101731.69;4993970;28;20054;-79
2024/01/09 08:55:37;;;;;;;11.07;5.47;;;;;;;-4.51;70.45;101719.75;4995108;28;20137;-78
2024/01/09 08:58:04;;;;;;;12.13;5.05;;;;;;;-4.48;70.69;101719.88;4994965;28;20057;-78
2024/01/09 09:00:30;;;;;;;9.77;4.68;;;;;;;-4.45;71.15;101722.56;4994797;28;20137;-78
2024/01/09 09:02:57;;;;;;;11.20;5.10;;;;;;;-4.42;70.68;101716.66;4995078;28;20125;-77
2024/01/09 09:05:23;;;;;;;10.77;5.45;;;;;;;-4.40;70.30;101712.44;4995215;28;20094;-77
2024/01/09 09:07:50;;;;;;;9.98;5.20;;;;;;;-4.36;70.40;101714.28;4995020;28;20076;-78
2024/01/09 09:10:17;;;;;;;10.25;5.13;;;;;;;-4.33;70.35;101715.28;4994706;28;20047;-78
2024/01/09 09:12:43;;;;;;;11.82;5.57;;;;;;;-4.28;70.62;101714.56;4993413;28;20046;-81
2024/01/09 09:15:10;;;;;;;8.55;4.75;;;;;;;-4.25;70.76;101720.72;5014674;28;20137;-78
2024/01/09 09:17:36;;;;;;;8.93;4.63;;;;;;;-4.20;71.03;101718.28;5014544;28;20096;-78
2024/01/09 09:20:05;;;;;;;12.18;5.35;;;;;;;-4.16;70.69;101715.00;5014301;28;20046;-78
2024/01/09 09:22:33;;;;;;;9.70;4.63;;;;;;;-4.11;70.63;101731.47;5014087;28;20676;-78
2024/01/09 09:25:00;;;;;;;10.07;4.63;;;;;;;-4.08;71.25;101725.56;5014247;28;20042;-77
2024/01/09 09:27:26;;;;;;;9.00;4.80;;;;;;;-4.01;70.97;101726.69;4996441;28;20088;-79
2024/01/09 09:29:53;;;;;;;10.55;4.60;;;;;;;-3.98;71.38;101729.34;5013983;28;20112;-78
2024/01/09 09:32:20;;;;;;;8.65;4.45;;;;;;;-3.95;70.80;101725.19;4996645;28;20136;-78
2024/01/09 09:34:46;;;;;;;12.35;4.82;;;;;;;-3.89;71.40;101729.66;4996534;28;20487;-78
2024/01/09 09:37:17;;;;;;;9.23;4.15;;;;;;;-3.84;71.14;101725.56;5014109;28;20050;-79
2024/01/09 09:39:44;;;;;;;12.77;4.20;;;;;;;-3.78;71.29;101729.16;5013979;28;20115;-79
2024/01/09 09:42:10;;;;;;;10.75;5.25;;;;;;;-3.75;71.14;101722.41;5013618;28;20411;-78
2024/01/09 09:44:37;;;;;;;11.45;5.05;;;;;;;-3.69;71.17;101721.75;5013811;28;20042;-79
2024/01/09 09:47:06;;;;;;;10.63;4.90;;;;;;;-3.64;71.17;101716.75;5013938;28;20061;-78
2024/01/09 09:49:38;;;;;;;11.80;5.00;;;;;;;-3.62;70.60;101713.44;5013858;28;20100;-78
2024/01/09 09:52:05;;;;;;;6.85;3.95;;;;;;;-3.55;71.00;101712.78;4996107;28;20050;-78
2024/01/09 09:54:33;;;;;;;13.18;4.80;;;;;;;-3.49;71.16;101716.38;5013636;28;20084;-79
2024/01/09 09:56:59;;;;;;;8.05;4.30;;;;;;;-3.45;71.47;101713.06;5013280;28;20144;-79
2024/01/09 09:59:26;;;;;;;11.95;4.72;;;;;;;-3.42;71.43;101708.94;5012662;28;20495;-79
2024/01/09 10:01:53;;;;;;;8.88;4.63;;;;;;;-3.36;70.83;101700.53;5013367;28;20202;-79
2024/01/09 10:04:46;;;;;;;7.82;3.80;;;;;;;-3.33;69.02;101699.75;5013382;28;20100;-79
2024/01/09 10:07:16;;;;;;;9.95;4.18;;;;;;;-3.25;70.23;101697.41;5013196;28;20065;-79
2024/01/09 10:09:48;;;;;;;13.48;4.20;;;;;;;-3.20;70.58;101695.84;5013805;28;20054;-81
2024/01/09 10:12:15;;;;;;;12.07;4.00;;;;;;;-3.17;70.93;101696.81;5012966;28;20449;-79
2024/01/09 10:15:07;;;;;;;9.82;4.57;;;;;;;-3.11;68.05;101693.56;5012460;28;20125;-78
2024/01/09 10:17:35;;;;;;;8.82;4.63;;;;;;;-3.05;71.16;101693.75;5012505;28;20068;-78
2024/01/09 10:20:04;;;;;;;8.85;4.05;;;;;;;-3.01;71.28;101685.28;5012429;28;20050;-79
2024/01/09 10:22:35;;;;;;;6.57;3.92;;;;;;;-2.96;71.27;101690.56;4994992;28;20081;-79
2024/01/09 10:25:05;;;;;;;9.10;4.65;;;;;;;-2.91;69.88;101683.84;5012320;28;20046;-76
2024/01/09 10:27:36;;;;;;;7.85;4.45;;;;;;;-2.86;70.29;101689.16;5012274;28;20478;-79
2024/01/09 10:30:07;;;;;;;8.98;4.10;;;;;;;-2.80;69.85;101685.88;5012251;28;20054;-82
2024/01/09 10:32:37;;;;;;;8.63;4.47;;;;;;;-2.74;70.90;101680.91;5012877;28;20461;-81
2024/01/09 10:35:07;;;;;;;9.95;3.58;;;;;;;-2.68;70.76;101675.06;4995988;28;20046;-79
2024/01/09 10:37:34;;;;;;;8.98;3.92;;;;;;;-2.65;70.54;101667.41;5012968;28;20057;-78
2024/01/09 10:40:01;;;;;;;6.82;3.70;;;;;;;-2.60;70.86;101665.84;5012649;28;20141;-79
2024/01/09 10:42:30;;;;;;;7.32;3.90;;;;;;;-2.55;70.73;101663.41;5012447;28;20478;-78
2024/01/09 10:44:58;;;;;;;10.38;3.95;;;;;;;-2.51;71.14;101673.81;4995397;28;20050;-79
2024/01/09 10:47:27;;;;;;;7.40;4.25;;;;;;;-2.46;70.96;101670.50;5012558;28;20057;-78
2024/01/09 10:49:54;;;;;;;7.45;3.83;;;;;;;-2.40;70.87;101671.56;5011889;28;20050;-77
2024/01/09 10:52:21;;;;;;;7.95;4.35;;;;;;;-2.36;71.19;101668.22;5012640;28;20046;-78
2024/01/09 10:54:47;;;;;;;8.20;3.55;;;;;;;-2.31;71.22;101663.22;5012580;28;20459;-80
2024/01/09 10:57:15;;;;;;;7.28;3.60;;;;;;;-2.25;70.93;101659.88;4994764;28;20418;-78
2024/01/09 10:59:46;;;;;;;6.25;3.20;;;;;;;-2.22;69.49;101662.56;5012462;28;20049;-78
2024/01/09 11:02:15;;;;;;;8.05;3.65;;;;;;;-2.16;69.71;101660.16;4994884;28;20470;-78
2024/01/09 11:04:43;;;;;;;6.82;3.85;;;;;;;-2.11;70.39;101656.00;5012472;28;20352;-79
2024/01/09 11:07:14;;;;;;;9.35;3.90;;;;;;;-2.06;70.38;101652.66;5012371;28;20466;-79
2024/01/09 11:09:47;;;;;;;8.05;3.90;;;;;;;-2.02;69.25;101645.03;5012161;28;20045;-79
2024/01/09 11:12:30;;;;;;;7.63;3.67;;;;;;;-1.97;68.77;101652.91;5011998;28;20061;-77
2024/01/09 11:15:03;;;;;;;6.30;3.60;;;;;;;-1.88;70.56;101650.53;4994857;28;20146;-78
2024/01/09 11:17:32;;;;;;;7.97;4.18;;;;;;;-1.77;71.98;101650.81;5012436;28;20057;-77
2024/01/09 11:19:59;;;;;;;6.70;3.47;;;;;;;-1.62;72.94;101636.50;4994371;28;20050;-77
2024/01/09 11:22:33;;;;;;;7.65;4.20;;;;;;;-1.41;72.45;101640.44;4994852;28;20136;-78